createdAt,value
2023-02-12T00:04:46.135Z,24.9
2023-02-12T00:10:23.062Z,24.8
2023-02-12T00:16:00.579Z,24.8
2023-02-12T00:21:07.327Z,24.8
2023-02-12T00:26:45.787Z,24.8
2023-02-12T00:32:25.333Z,24.8
2023-02-12T00:37:47.983Z,24.8
2023-02-12T00:43:25.471Z,24.7
2023-02-12T00:49:03.687Z,24.7
2023-02-12T00:54:44.431Z,24.7
2023-02-12T01:00:21.631Z,24.6
2023-02-12T01:05:59.999Z,24.6
2023-02-12T01:11:37.126Z,24.6
2023-02-12T01:17:15.076Z,24.6
2023-02-12T01:22:53.783Z,24.6
2023-02-12T01:28:16.432Z,24.6
2023-02-12T01:33:55.674Z,24.6
2023-02-12T01:39:37.153Z,24.5
2023-02-12T01:45:14.368Z,24.5
2023-02-12T01:50:52.084Z,24.4
2023-02-12T01:56:30.309Z,24.4
2023-02-12T02:02:07.920Z,24.4
2023-02-12T02:07:45.936Z,24.4
2023-02-12T02:13:08.469Z,24.4
2023-02-12T02:18:45.906Z,24.4
2023-02-12T02:24:23.667Z,24.4
2023-02-12T02:30:00.320Z,24.3
2023-02-12T02:35:38.483Z,24.3
2023-02-12T02:41:30.777Z,24.3
2023-02-12T02:47:08.464Z,24.3
2023-02-12T02:52:46.149Z,24.3
2023-02-12T02:58:24.755Z,24.3
2023-02-12T03:03:31.972Z,24.3
2023-02-12T03:09:10.292Z,24.2
2023-02-12T03:14:48.191Z,24.2
2023-02-12T03:20:25.617Z,24.2
2023-02-12T03:25:47.042Z,24.2
2023-02-12T03:31:09.277Z,24.1
2023-02-12T03:36:46.210Z,24.1
2023-02-12T03:42:23.387Z,24.1
2023-02-12T03:48:01.109Z,24.1
2023-02-12T03:53:37.963Z,24.1
2023-02-12T03:59:15.334Z,24.1
2023-02-12T04:04:54.115Z,24.1
2023-02-12T04:10:30.326Z,24.1
2023-02-12T04:16:08.130Z,24
2023-02-12T04:21:47.595Z,24
2023-02-12T04:27:24.936Z,23.9
2023-02-12T04:33:04.093Z,24
2023-02-12T04:38:41.640Z,23.9
2023-02-12T04:44:01.866Z,23.9
2023-02-12T04:49:39.710Z,23.9
2023-02-12T04:55:16.623Z,23.9
2023-02-12T05:00:53.443Z,23.9
2023-02-12T05:06:35.539Z,23.9
2023-02-12T05:11:56.433Z,23.9
2023-02-12T05:17:33.933Z,23.9
2023-02-12T05:22:56.088Z,23.9
2023-02-12T05:28:17.904Z,23.9
2023-02-12T05:33:56.067Z,23.8
2023-02-12T05:39:34.144Z,23.8
2023-02-12T05:44:56.030Z,23.8
2023-02-12T05:50:17.199Z,23.8
2023-02-12T05:55:56.901Z,23.8
2023-02-12T06:01:34.604Z,23.8
2023-02-12T06:07:11.499Z,23.8
2023-02-12T06:12:32.681Z,23.8
2023-02-12T06:18:12.568Z,23.8
2023-02-12T06:23:33.700Z,23.7
2023-02-12T06:28:55.532Z,23.7
2023-02-12T06:34:33.075Z,23.7
2023-02-12T06:40:10.332Z,23.6
2023-02-12T06:45:31.880Z,23.6
2023-02-12T06:51:10.077Z,23.6
2023-02-12T06:56:34.936Z,23.6
2023-02-12T07:02:13.113Z,23.6
2023-02-12T07:07:35.484Z,23.6
2023-02-12T07:12:45.091Z,23.6
2023-02-12T07:18:07.051Z,23.6
2023-02-12T07:23:13.129Z,23.6
2023-02-12T07:28:23.112Z,23.6
2023-02-12T07:34:00.272Z,23.6
2023-02-12T07:39:37.597Z,23.5
2023-02-12T07:44:58.912Z,23.5
2023-02-12T07:50:35.849Z,23.5
2023-02-12T07:55:58.645Z,23.5
2023-02-12T08:01:19.561Z,23.5
2023-02-12T08:06:57.170Z,23.4
2023-02-12T08:12:34.882Z,23.4
2023-02-12T08:18:12.842Z,23.4
2023-02-12T08:24:03.996Z,23.4
2023-02-12T08:29:41.924Z,23.4
2023-02-12T08:35:19.894Z,23.4
2023-02-12T08:40:57.469Z,23.4
2023-02-12T08:46:19.351Z,23.4
2023-02-12T08:51:41.453Z,23.4
2023-02-12T08:57:18.846Z,23.4
2023-02-12T09:02:56.674Z,23.4
2023-02-12T09:08:33.543Z,23.3
2023-02-12T09:13:54.625Z,23.3
2023-02-12T09:19:32.782Z,23.3
2023-02-12T09:25:11.104Z,23.3
2023-02-12T09:30:47.497Z,23.3
2023-02-12T09:36:10.376Z,23.3
2023-02-12T09:41:32.278Z,23.3
2023-02-12T09:47:11.007Z,23.3
2023-02-12T09:52:47.924Z,23.3
2023-02-12T09:58:28.082Z,23.2
2023-02-12T10:04:12.327Z,23.2
2023-02-12T10:09:47.986Z,23.2
2023-02-12T10:15:29.510Z,23.2
2023-02-12T10:21:08.435Z,23.2
2023-02-12T10:26:54.216Z,23.1
2023-02-12T10:32:19.746Z,23.1
2023-02-12T10:37:41.230Z,23.1
2023-02-12T10:43:18.791Z,23.1
2023-02-12T10:48:57.663Z,23.1
2023-02-12T10:54:36.331Z,23.1
2023-02-12T11:00:14.703Z,23.1
2023-02-12T11:05:52.875Z,23.1
2023-02-12T11:11:29.600Z,23.1
2023-02-12T11:17:08.947Z,23.1
2023-02-12T11:22:47.789Z,23.1
2023-02-12T11:28:25.760Z,23.1
2023-02-12T11:33:49.109Z,23.1
2023-02-12T11:39:30.499Z,23
2023-02-12T11:45:07.511Z,23
2023-02-12T11:50:44.324Z,23
2023-02-12T11:55:51.605Z,23
2023-02-12T12:01:13.480Z,22.9
2023-02-12T12:06:51.529Z,22.9
2023-02-12T12:12:29.730Z,22.9
2023-02-12T12:17:52.602Z,22.9
2023-02-12T12:23:29.710Z,22.9
2023-02-12T12:29:06.567Z,22.9
2023-02-12T12:34:28.346Z,22.9
2023-02-12T12:40:04.682Z,22.9
2023-02-12T12:45:42.655Z,22.9
2023-02-12T12:51:20.997Z,22.9
2023-02-12T12:56:43.059Z,22.8
2023-02-12T13:02:21.397Z,22.9
2023-02-12T13:08:00.133Z,22.8
2023-02-12T13:13:37.483Z,22.8
2023-02-12T13:19:15.357Z,22.8
2023-02-12T13:24:38.123Z,22.8
2023-02-12T13:30:17.606Z,22.8
2023-02-12T13:36:04.012Z,22.8
2023-02-12T13:41:13.225Z,22.8
2023-02-12T13:46:36.005Z,22.9
2023-02-12T13:51:58.492Z,22.7
2023-02-12T13:57:20.542Z,22.6
2023-02-12T14:02:43.320Z,22.5
2023-02-12T14:08:06.933Z,22.4
2023-02-12T14:13:31.063Z,22.3
2023-02-12T14:18:55.592Z,22.3
2023-02-12T14:24:18.311Z,22.3
2023-02-12T14:29:40.395Z,22.2
2023-02-12T14:34:48.166Z,22.2
2023-02-12T14:40:09.261Z,22.1
2023-02-12T14:45:30.666Z,21.9
2023-02-12T14:50:53.371Z,21.9
2023-02-12T14:56:15.853Z,21.8
2023-02-12T15:01:39.037Z,21.7
2023-02-12T15:07:16.440Z,21.5
2023-02-12T15:12:23.729Z,21.3
2023-02-12T15:18:01.435Z,21.1
2023-02-12T15:23:39.229Z,20.8
2023-02-12T15:29:16.456Z,20.6
2023-02-12T15:34:57.514Z,20.3
2023-02-12T15:40:41.877Z,20.1
2023-02-12T15:45:50.170Z,19.9
2023-02-12T15:51:27.789Z,19.8
2023-02-12T15:57:05.139Z,19.6
2023-02-12T16:01:58.495Z,19.5
2023-02-12T16:07:20.634Z,19.4
2023-02-12T16:12:42.168Z,19.3
2023-02-12T16:18:04.981Z,19.2
2023-02-12T16:23:25.779Z,19.1
2023-02-12T16:29:04.463Z,19.1
2023-02-12T16:34:43.219Z,19
2023-02-12T16:40:19.789Z,18.9
2023-02-12T16:45:58.463Z,18.9
2023-02-12T16:51:36.597Z,18.8
2023-02-12T16:57:14.006Z,18.8
2023-02-12T17:02:21.490Z,18.8
2023-02-12T17:18:59.859Z,18.6
2023-02-12T17:24:37.474Z,18.6
2023-02-12T17:29:59.385Z,18.5
2023-02-12T17:35:36.895Z,18.5
2023-02-12T17:41:15.467Z,18.5
2023-02-12T17:46:53.692Z,18.5
2023-02-12T17:52:32.078Z,18.4
2023-02-12T17:58:09.411Z,18.4
2023-02-12T18:03:31.835Z,18.4
2023-02-12T18:08:54.615Z,18.4
2023-02-12T18:14:17.489Z,18.4
2023-02-12T18:19:54.046Z,18.4
2023-02-12T18:25:31.094Z,18.3
2023-02-12T18:31:09.182Z,18.3
2023-02-12T18:36:47.640Z,18.3
2023-02-12T18:42:09.881Z,18.3
2023-02-12T18:47:48.249Z,18.3
2023-02-12T18:53:26.888Z,18.3
2023-02-12T18:59:05.349Z,18.3
2023-02-12T19:04:28.737Z,18.3
2023-02-12T19:09:35.771Z,18.2
2023-02-12T19:15:14.463Z,18.1
2023-02-12T19:20:21.120Z,17.9
2023-02-12T19:26:23.721Z,17.8
2023-02-12T19:31:48.901Z,17.6
2023-02-12T19:37:11.733Z,17.5
2023-02-12T19:42:34.333Z,17.3
2023-02-12T19:47:58.169Z,17.2
2023-02-12T19:53:21.229Z,17.1
2023-02-12T20:03:49.762Z,16.9
2023-02-12T20:08:41.832Z,16.8
2023-02-12T20:13:48.682Z,16.8
2023-02-12T20:18:56.340Z,16.7
2023-02-12T20:24:21.246Z,16.7
2023-02-12T20:29:42.333Z,16.8
2023-02-12T20:35:06.409Z,16.9
2023-02-12T20:40:35.327Z,17.2
2023-02-12T20:51:04.050Z,18.4
2023-02-12T20:56:43.012Z,19.1
2023-02-12T21:02:04.673Z,19.8
2023-02-12T21:07:42.225Z,20.7
2023-02-12T21:13:04.788Z,21.5
2023-02-12T21:18:51.409Z,22.3
2023-02-12T21:24:30.120Z,22.7
2023-02-12T21:30:08.552Z,23.1
2023-02-12T21:35:31.591Z,23.3
2023-02-12T21:41:14.894Z,23.4
2023-02-12T21:46:37.496Z,23.5
2023-02-12T21:52:06.181Z,23.5
2023-02-12T21:57:42.684Z,23.6
2023-02-12T22:03:19.825Z,23.6
2023-02-12T22:08:55.767Z,23.6
2023-02-12T22:14:33.172Z,23.6
2023-02-12T22:20:10.872Z,23.6
2023-02-12T22:25:47.864Z,23.6
2023-02-12T22:31:24.748Z,23.6
2023-02-12T22:36:31.925Z,23.6
2023-02-12T22:42:08.903Z,23.6
2023-02-12T22:47:47.604Z,23.6
2023-02-12T22:53:24.578Z,23.6
2023-02-12T22:59:01.589Z,23.6
2023-02-12T23:04:39.954Z,23.6
2023-02-12T23:10:31.926Z,23.6
2023-02-12T23:16:09.956Z,23.6
2023-02-12T23:21:17.463Z,23.6
2023-02-12T23:26:39.056Z,23.6
2023-02-12T23:32:02.443Z,23.6
2023-02-12T23:37:23.866Z,23.5
2023-02-12T23:43:01.847Z,23.5
2023-02-12T23:48:07.664Z,23.5
2023-02-12T23:53:30.085Z,23.4
2023-02-12T23:58:59.099Z,23.4
